Aeroporto :







RITROVATECI SU...

 
LOGIN :

Iscrizione | Disclaimer

   EN    FR    IT 

 









Sommario :    VFR   VFR Marginale   IFR   IFR Intensivo   IFR Molto Intensivo
Visibilità : 
Base nubi : 
>= 8 km
>= 3000ft
5 / 8 km
1000 / 3000 ft
1500m / 5 km
500 / 1000 ft
800 / 1500m
200 / 500 ft
< 800m
< 200 ft
Simboli :   Temporali  Nebbia  Neve Forte  Precipitazioni Forti  Vento > 20 kt






- Altitudine del aeroporto : 180 ft
- Codice IATA : YZV


CYZV - Sept-Iles

ULTIMO METAR :
  • 241500Z 28002KT 30SM FEW050 FEW260 M11/M19 A3056 RMK SC1CI1 SC TR CI TR SLP354

METARs OBSOLETI :
  • 241400Z 31005KT 30SM FEW050 FEW260 M12/M18 A3054 RMK SC1CI1 SC TR CI TR SLP347
  • 241300Z 00000KT 30SM FEW050 FEW260 M21/M24 A3052 RMK SC1CI2 SC TR PRESRR SLP342

TAF TAF CYZV
Valido dal 24 a 12 ore il 25 a 12 ore UTC


241138Z 2412/2512 VRB03KT P6SM SCT050
BECMG 2416/2418 26008KT
FM250300 VRB03KT P6SM SKC
PROB30 2503/2512 2SM BR RMK NXT FCST BY 241800Z



MetMap, La meteo Aeronautica in un colpo d'occhio ! - Copyright ORBIFLY Dicembre 2007 - Disclaimer

ORBIFLY MET'MAP TEAM :

Programmazione e sviluppo : Alexandra Zaïnal
Concezione : Baudouin d'Aumeries
Aiuto per la programmazione : Marc-Olivier Méhu
Supporto tecnico e logistico : Manuel Goepfert
Aiuto per la traduzione : Arnaldo La Scala

Contatto : metmap@orbifly.com




FONTI E CREDITI :

   NOAA